EWG10R LOWG-EDDL
Flight info
| Callsign | EWG10R |
|---|---|
| Flight time | N/A |
| Altitude | 36000 |
| Route | MILGO5U MILGO DCT DEXIT L850 LALIN L604 SULUS T852 TESDU DCT AMETU T852 TINSA T854 DOMUX DOMUX1A |
| Aircraft | A320/M-SDE3FGHIRWY/LB1 |
Departure
| Time | 2026-05-07 18:21 |
|---|---|
| Airport | Graz Airport (LOWG) |
Arrival
| Time | N/A |
|---|---|
| Airport | Düsseldorf Airport (EDDL) |
| Time | Latitude | Longitude | Altitude | Speed | Heading |
|---|---|---|---|---|---|
| 2026-05-07 17:54 | 46.99532 | 15.44339 | 1113 ft | 0 kts | 126° |
| 2026-05-07 18:15 | 46.99521 | 15.44336 | 1111 ft | 4 kts | 211° |
| 2026-05-07 18:15 | 46.99528 | 15.44267 | 1109 ft | 11 kts | 313° |
| 2026-05-07 18:16 | 46.99620 | 15.44224 | 1107 ft | 17 kts | 350° |
| 2026-05-07 18:16 | 46.99758 | 15.44186 | 1115 ft | 23 kts | 349° |
| 2026-05-07 18:16 | 46.99913 | 15.44143 | 1114 ft | 23 kts | 349° |
| 2026-05-07 18:16 | 47.00067 | 15.44101 | 1110 ft | 22 kts | 349° |
| 2026-05-07 18:17 | 47.00218 | 15.44060 | 1116 ft | 22 kts | 349° |
| 2026-05-07 18:17 | 47.00327 | 15.43980 | 1119 ft | 16 kts | 307° |
| 2026-05-07 18:17 | 47.00390 | 15.43842 | 1123 ft | 11 kts | 305° |
| 2026-05-07 18:17 | 47.00397 | 15.43827 | 1119 ft | 0 kts | 305° |
| 2026-05-07 18:18 | 47.00399 | 15.43823 | 1119 ft | 3 kts | 305° |
| 2026-05-07 18:18 | 47.00422 | 15.43770 | 1120 ft | 8 kts | 297° |
| 2026-05-07 18:19 | 47.00432 | 15.43706 | 1125 ft | 5 kts | 270° |
| 2026-05-07 18:19 | 47.00425 | 15.43652 | 1127 ft | 10 kts | 252° |
| 2026-05-07 18:19 | 47.00352 | 15.43620 | 1120 ft | 12 kts | 169° |
| 2026-05-07 18:19 | 47.00343 | 15.43623 | 1123 ft | 1 kts | 169° |
| 2026-05-07 18:20 | 47.00334 | 15.43625 | 1122 ft | 2 kts | 169° |
| 2026-05-07 18:20 | 47.00307 | 15.43633 | 1117 ft | 12 kts | 169° |
| 2026-05-07 18:20 | 46.99944 | 15.43731 | 1116 ft | 92 kts | 169° |
| 2026-05-07 18:20 | 46.99093 | 15.43970 | 1109 ft | 154 kts | 169° |
| 2026-05-07 18:21 | 46.97927 | 15.44283 | 1438 ft | 174 kts | 170° |
| 2026-05-07 18:21 | 46.96674 | 15.44609 | 1982 ft | 194 kts | 169° |
| 2026-05-07 18:21 | 46.95299 | 15.44972 | 2485 ft | 207 kts | 169° |
| 2026-05-07 18:21 | 46.93822 | 15.45366 | 2937 ft | 222 kts | 170° |
| 2026-05-07 18:22 | 46.92312 | 15.45774 | 3366 ft | 225 kts | 169° |
| 2026-05-07 18:22 | 46.91269 | 15.46000 | 3658 ft | 224 kts | 180° |
| 2026-05-07 18:22 | 46.89452 | 15.44903 | 4330 ft | 217 kts | 234° |
| 2026-05-07 18:22 | 46.88969 | 15.42893 | 4947 ft | 215 kts | 275° |
| 2026-05-07 18:23 | 46.89473 | 15.40870 | 5792 ft | 217 kts | 307° |
| 2026-05-07 18:23 | 46.90637 | 15.39440 | 6610 ft | 221 kts | 322° |
| 2026-05-07 18:23 | 46.91907 | 15.38162 | 7363 ft | 223 kts | 322° |
| 2026-05-07 18:23 | 46.93195 | 15.36870 | 8119 ft | 226 kts | 322° |
| 2026-05-07 18:24 | 46.94506 | 15.35554 | 8897 ft | 230 kts | 322° |
| 2026-05-07 18:24 | 46.95829 | 15.34219 | 9697 ft | 232 kts | 322° |
| 2026-05-07 18:24 | 46.97166 | 15.32865 | 10438 ft | 235 kts | 322° |
| 2026-05-07 18:24 | 46.98622 | 15.31653 | 11021 ft | 250 kts | 331° |
| 2026-05-07 18:25 | 47.00257 | 15.30482 | 11336 ft | 274 kts | 331° |
| 2026-05-07 18:25 | 47.02049 | 15.29209 | 11629 ft | 298 kts | 332° |
| 2026-05-07 18:25 | 47.03994 | 15.27831 | 11899 ft | 322 kts | 332° |
| 2026-05-07 18:25 | 47.06054 | 15.26373 | 12424 ft | 334 kts | 332° |
| 2026-05-07 18:26 | 47.08168 | 15.24880 | 13155 ft | 339 kts | 332° |
| 2026-05-07 18:26 | 47.10304 | 15.23370 | 13907 ft | 343 kts | 332° |
| 2026-05-07 18:26 | 47.12473 | 15.21834 | 14581 ft | 348 kts | 332° |
| 2026-05-07 18:26 | 47.14662 | 15.20277 | 15257 ft | 352 kts | 332° |
| 2026-05-07 18:27 | 47.16879 | 15.18697 | 15929 ft | 356 kts | 332° |
| 2026-05-07 18:27 | 47.19121 | 15.17098 | 16591 ft | 360 kts | 332° |
| 2026-05-07 18:27 | 47.21387 | 15.15478 | 17238 ft | 364 kts | 332° |
| 2026-05-07 18:27 | 47.22897 | 15.14397 | 17671 ft | 367 kts | 332° |
| 2026-05-07 18:28 | 47.25998 | 15.12174 | 18500 ft | 374 kts | 332° |
| 2026-05-07 18:28 | 47.28349 | 15.10486 | 19069 ft | 377 kts | 332° |
| 2026-05-07 18:28 | 47.30687 | 15.08703 | 19667 ft | 379 kts | 326° |
| 2026-05-07 18:28 | 47.32922 | 15.06642 | 20334 ft | 380 kts | 326° |
| 2026-05-07 18:29 | 47.35170 | 15.04573 | 20978 ft | 382 kts | 326° |
| 2026-05-07 18:29 | 47.37434 | 15.02492 | 21562 ft | 385 kts | 327° |
| 2026-05-07 18:29 | 47.39717 | 15.00398 | 22125 ft | 389 kts | 327° |
| 2026-05-07 18:29 | 47.42029 | 14.98278 | 22689 ft | 392 kts | 327° |
| 2026-05-07 18:30 | 47.44356 | 14.96142 | 23238 ft | 396 kts | 327° |
| 2026-05-07 18:30 | 47.46702 | 14.93981 | 23762 ft | 400 kts | 326° |
| 2026-05-07 18:30 | 47.49073 | 14.91799 | 24210 ft | 403 kts | 326° |
| 2026-05-07 18:30 | 47.51461 | 14.89599 | 24653 ft | 406 kts | 326° |
| 2026-05-07 18:31 | 47.53831 | 14.87415 | 25082 ft | 408 kts | 326° |
| 2026-05-07 18:31 | 47.56280 | 14.85156 | 25515 ft | 411 kts | 326° |
| 2026-05-07 18:31 | 47.58712 | 14.82906 | 25931 ft | 413 kts | 325° |
| 2026-05-07 18:31 | 47.61151 | 14.80640 | 26353 ft | 416 kts | 325° |
| 2026-05-07 18:32 | 47.63604 | 14.78358 | 26815 ft | 416 kts | 325° |
| 2026-05-07 18:32 | 47.66027 | 14.76102 | 27261 ft | 418 kts | 325° |
| 2026-05-07 18:32 | 47.68493 | 14.73809 | 27675 ft | 420 kts | 325° |
| 2026-05-07 18:32 | 47.70972 | 14.71503 | 28079 ft | 422 kts | 324° |
| 2026-05-07 18:33 | 47.73467 | 14.69173 | 28455 ft | 425 kts | 324° |
| 2026-05-07 18:33 | 47.75972 | 14.66834 | 28827 ft | 427 kts | 324° |
| 2026-05-07 18:33 | 47.78497 | 14.64473 | 29203 ft | 429 kts | 324° |
| 2026-05-07 18:33 | 47.81033 | 14.62100 | 29547 ft | 431 kts | 324° |
| 2026-05-07 18:34 | 47.83581 | 14.59717 | 29893 ft | 433 kts | 324° |
| 2026-05-07 18:34 | 47.86133 | 14.57327 | 30225 ft | 435 kts | 324° |
| 2026-05-07 18:34 | 47.88701 | 14.54920 | 30488 ft | 437 kts | 324° |
| 2026-05-07 18:34 | 47.91290 | 14.52485 | 30754 ft | 440 kts | 324° |
| 2026-05-07 18:35 | 47.93871 | 14.50053 | 31046 ft | 440 kts | 324° |
| 2026-05-07 18:35 | 47.96470 | 14.47600 | 31302 ft | 442 kts | 324° |
| 2026-05-07 18:35 | 47.99072 | 14.45140 | 31548 ft | 444 kts | 324° |
| 2026-05-07 18:35 | 48.01677 | 14.42675 | 31854 ft | 444 kts | 323° |
| 2026-05-07 18:36 | 48.04286 | 14.40209 | 32197 ft | 443 kts | 323° |
| 2026-05-07 18:36 | 48.06890 | 14.37745 | 32532 ft | 443 kts | 323° |
| 2026-05-07 18:36 | 48.09489 | 14.35283 | 32860 ft | 442 kts | 323° |
| 2026-05-07 18:36 | 48.12085 | 14.32820 | 33189 ft | 442 kts | 323° |
| 2026-05-07 18:37 | 48.14676 | 14.30361 | 33512 ft | 442 kts | 323° |
| 2026-05-07 18:37 | 48.17271 | 14.27891 | 33854 ft | 441 kts | 323° |
| 2026-05-07 18:37 | 48.19864 | 14.25421 | 34172 ft | 441 kts | 323° |
| 2026-05-07 18:37 | 48.22460 | 14.22946 | 34416 ft | 443 kts | 323° |
| 2026-05-07 18:38 | 48.25064 | 14.20462 | 34652 ft | 443 kts | 323° |
| 2026-05-07 18:38 | 48.27666 | 14.17976 | 34887 ft | 444 kts | 323° |
| 2026-05-07 18:38 | 48.30268 | 14.15485 | 35138 ft | 444 kts | 323° |
| 2026-05-07 18:38 | 48.32874 | 14.12987 | 35380 ft | 444 kts | 323° |
| 2026-05-07 18:39 | 48.35478 | 14.10489 | 35615 ft | 444 kts | 323° |
| 2026-05-07 18:39 | 48.38084 | 14.07989 | 35853 ft | 444 kts | 323° |
| 2026-05-07 18:39 | 48.40686 | 14.05487 | 36023 ft | 445 kts | 323° |
| 2026-05-07 18:40 | 48.44991 | 14.01342 | 36061 ft | 440 kts | 323° |
| 2026-05-07 18:40 | 48.50140 | 13.96369 | 36049 ft | 439 kts | 323° |
| 2026-05-07 18:41 | 48.55260 | 13.91410 | 36053 ft | 437 kts | 323° |
| 2026-05-07 18:41 | 48.60368 | 13.86445 | 36054 ft | 436 kts | 323° |
| 2026-05-07 18:42 | 48.65486 | 13.81469 | 36057 ft | 437 kts | 323° |
| 2026-05-07 18:42 | 48.70588 | 13.76496 | 36059 ft | 436 kts | 323° |
| 2026-05-07 18:43 | 48.75206 | 13.70693 | 36057 ft | 429 kts | 307° |
| 2026-05-07 18:43 | 48.78511 | 13.63231 | 36065 ft | 426 kts | 300° |
| 2026-05-07 18:44 | 48.81753 | 13.55714 | 36056 ft | 427 kts | 301° |
| 2026-05-07 18:44 | 48.85205 | 13.48380 | 36053 ft | 428 kts | 303° |
| 2026-05-07 18:45 | 48.88721 | 13.41161 | 36054 ft | 428 kts | 303° |
| 2026-05-07 18:45 | 48.92229 | 13.33855 | 36053 ft | 428 kts | 303° |
| 2026-05-07 18:46 | 48.95707 | 13.26515 | 36064 ft | 428 kts | 303° |
| 2026-05-07 18:46 | 48.99171 | 13.19165 | 36072 ft | 427 kts | 303° |
| 2026-05-07 18:47 | 49.02628 | 13.11797 | 36061 ft | 427 kts | 303° |
| 2026-05-07 18:47 | 49.06082 | 13.04429 | 36054 ft | 427 kts | 303° |
| 2026-05-07 18:48 | 49.09537 | 12.97053 | 36052 ft | 427 kts | 303° |
| 2026-05-07 18:48 | 49.12987 | 12.89667 | 36051 ft | 427 kts | 303° |
| 2026-05-07 18:49 | 49.16427 | 12.82268 | 36049 ft | 427 kts | 303° |
| 2026-05-07 18:49 | 49.19862 | 12.74863 | 36050 ft | 427 kts | 303° |
| 2026-05-07 18:50 | 49.23288 | 12.67449 | 36050 ft | 427 kts | 303° |
| 2026-05-07 18:50 | 49.26716 | 12.60015 | 36050 ft | 427 kts | 302° |
| 2026-05-07 18:51 | 49.30141 | 12.52585 | 36068 ft | 427 kts | 303° |
| 2026-05-07 18:51 | 49.33559 | 12.45136 | 36061 ft | 427 kts | 303° |
| 2026-05-07 18:52 | 49.36973 | 12.37677 | 36056 ft | 427 kts | 303° |
| 2026-05-07 18:52 | 49.40379 | 12.30219 | 36048 ft | 427 kts | 303° |
| 2026-05-07 18:53 | 49.43784 | 12.22748 | 36044 ft | 427 kts | 303° |
| 2026-05-07 18:53 | 49.47186 | 12.15262 | 36037 ft | 427 kts | 303° |
| 2026-05-07 18:54 | 49.50578 | 12.07769 | 36037 ft | 426 kts | 303° |
| 2026-05-07 18:54 | 49.53958 | 12.00278 | 36033 ft | 426 kts | 302° |
| 2026-05-07 18:55 | 49.57328 | 11.92781 | 36027 ft | 426 kts | 302° |
| 2026-05-07 18:55 | 49.60673 | 11.85328 | 36027 ft | 426 kts | 303° |
| 2026-05-07 18:56 | 49.64045 | 11.77803 | 36025 ft | 426 kts | 302° |
| 2026-05-07 18:56 | 49.67410 | 11.70275 | 36030 ft | 426 kts | 303° |
| 2026-05-07 18:57 | 49.70768 | 11.62726 | 36033 ft | 426 kts | 303° |
| 2026-05-07 18:57 | 49.74125 | 11.55157 | 36039 ft | 426 kts | 302° |
| 2026-05-07 18:58 | 49.77463 | 11.47601 | 36044 ft | 426 kts | 302° |
| 2026-05-07 18:58 | 49.80801 | 11.40020 | 36052 ft | 426 kts | 302° |
| 2026-05-07 18:59 | 49.84141 | 11.32425 | 36053 ft | 426 kts | 302° |
| 2026-05-07 18:59 | 49.87478 | 11.24843 | 36070 ft | 426 kts | 303° |
| 2026-05-07 19:00 | 49.90817 | 11.17242 | 36061 ft | 427 kts | 302° |
| 2026-05-07 19:00 | 49.94145 | 11.09608 | 36056 ft | 427 kts | 302° |
| 2026-05-07 19:01 | 49.97457 | 11.01956 | 36060 ft | 427 kts | 302° |
| 2026-05-07 19:01 | 50.00775 | 10.94293 | 36070 ft | 427 kts | 302° |
| 2026-05-07 19:02 | 50.04094 | 10.86624 | 36068 ft | 427 kts | 302° |
| 2026-05-07 19:02 | 50.07414 | 10.78947 | 36073 ft | 427 kts | 302° |
| 2026-05-07 19:03 | 50.10784 | 10.71327 | 36074 ft | 427 kts | 303° |
| 2026-05-07 19:03 | 50.14196 | 10.63730 | 36080 ft | 428 kts | 303° |
| 2026-05-07 19:04 | 50.17601 | 10.56141 | 36088 ft | 428 kts | 303° |
| 2026-05-07 19:04 | 50.20996 | 10.48495 | 36085 ft | 428 kts | 303° |
| 2026-05-07 19:05 | 50.24374 | 10.40841 | 36083 ft | 428 kts | 303° |
| 2026-05-07 19:05 | 50.27746 | 10.33185 | 36083 ft | 428 kts | 303° |
| 2026-05-07 19:06 | 50.31115 | 10.25513 | 36084 ft | 428 kts | 303° |
| 2026-05-07 19:06 | 50.36165 | 10.13984 | 36093 ft | 428 kts | 303° |
| 2026-05-07 19:07 | 50.39524 | 10.06285 | 36094 ft | 428 kts | 303° |
| 2026-05-07 19:07 | 50.42855 | 9.98634 | 36097 ft | 428 kts | 303° |
| 2026-05-07 19:08 | 50.46204 | 9.90918 | 36102 ft | 428 kts | 303° |
| 2026-05-07 19:08 | 50.49647 | 9.83202 | 35814 ft | 429 kts | 305° |
| 2026-05-07 19:09 | 50.51425 | 9.79445 | 35571 ft | 429 kts | 306° |
| 2026-05-07 19:09 | 50.53226 | 9.75706 | 35325 ft | 428 kts | 306° |
| 2026-05-07 19:09 | 50.55003 | 9.72027 | 35090 ft | 428 kts | 306° |
| 2026-05-07 19:09 | 50.56795 | 9.68298 | 34851 ft | 427 kts | 306° |
| 2026-05-07 19:10 | 50.58576 | 9.64557 | 34613 ft | 427 kts | 306° |
| 2026-05-07 19:10 | 50.60343 | 9.60812 | 34376 ft | 425 kts | 306° |
| 2026-05-07 19:10 | 50.62096 | 9.57082 | 34143 ft | 423 kts | 306° |
| 2026-05-07 19:10 | 50.63838 | 9.53370 | 33875 ft | 421 kts | 306° |
| 2026-05-07 19:11 | 50.65572 | 9.49663 | 33591 ft | 418 kts | 306° |
| 2026-05-07 19:11 | 50.67291 | 9.45982 | 33306 ft | 416 kts | 306° |
| 2026-05-07 19:11 | 50.69002 | 9.42320 | 33055 ft | 414 kts | 306° |
| 2026-05-07 19:11 | 50.70702 | 9.38686 | 32782 ft | 412 kts | 306° |
| 2026-05-07 19:12 | 50.72374 | 9.35103 | 32506 ft | 410 kts | 306° |
| 2026-05-07 19:12 | 50.74058 | 9.31488 | 32245 ft | 407 kts | 306° |
| 2026-05-07 19:12 | 50.75727 | 9.27896 | 31980 ft | 405 kts | 306° |
| 2026-05-07 19:12 | 50.77405 | 9.24275 | 31714 ft | 403 kts | 306° |
| 2026-05-07 19:13 | 50.79039 | 9.20748 | 31460 ft | 402 kts | 306° |
| 2026-05-07 19:13 | 50.80701 | 9.17155 | 31210 ft | 400 kts | 306° |
| 2026-05-07 19:13 | 50.82343 | 9.13608 | 30966 ft | 398 kts | 306° |
| 2026-05-07 19:13 | 50.83956 | 9.10120 | 30710 ft | 396 kts | 306° |
| 2026-05-07 19:14 | 50.85580 | 9.06603 | 30463 ft | 395 kts | 306° |
| 2026-05-07 19:14 | 50.87193 | 9.03101 | 30218 ft | 393 kts | 306° |
| 2026-05-07 19:14 | 50.88797 | 8.99614 | 29937 ft | 391 kts | 306° |
| 2026-05-07 19:14 | 50.90392 | 8.96147 | 29648 ft | 390 kts | 306° |
| 2026-05-07 19:15 | 50.91986 | 8.92674 | 29355 ft | 388 kts | 306° |
| 2026-05-07 19:15 | 50.93568 | 8.89220 | 29071 ft | 386 kts | 305° |
| 2026-05-07 19:15 | 50.95138 | 8.85783 | 28792 ft | 385 kts | 305° |
| 2026-05-07 19:15 | 50.96704 | 8.82356 | 28511 ft | 383 kts | 305° |
| 2026-05-07 19:16 | 50.98263 | 8.78938 | 28237 ft | 381 kts | 305° |
| 2026-05-07 19:16 | 50.99816 | 8.75530 | 27957 ft | 380 kts | 305° |
| 2026-05-07 19:16 | 51.01357 | 8.72144 | 27690 ft | 379 kts | 305° |
| 2026-05-07 19:16 | 51.02899 | 8.68762 | 27434 ft | 377 kts | 305° |
| 2026-05-07 19:17 | 51.04433 | 8.65393 | 27170 ft | 376 kts | 305° |
| 2026-05-07 19:17 | 51.05961 | 8.62027 | 26900 ft | 375 kts | 305° |
| 2026-05-07 19:17 | 51.07483 | 8.58663 | 26642 ft | 373 kts | 305° |
| 2026-05-07 19:17 | 51.08992 | 8.55319 | 26384 ft | 372 kts | 305° |
| 2026-05-07 19:18 | 51.10497 | 8.51976 | 26130 ft | 371 kts | 304° |
| 2026-05-07 19:18 | 51.11998 | 8.48647 | 25869 ft | 370 kts | 304° |
| 2026-05-07 19:18 | 51.13490 | 8.45329 | 25625 ft | 369 kts | 304° |
| 2026-05-07 19:18 | 51.14977 | 8.42016 | 25373 ft | 367 kts | 304° |
| 2026-05-07 19:19 | 51.16466 | 8.38707 | 25133 ft | 366 kts | 304° |
| 2026-05-07 19:19 | 51.17947 | 8.35416 | 24884 ft | 365 kts | 304° |
| 2026-05-07 19:19 | 51.19417 | 8.32139 | 24642 ft | 363 kts | 304° |
| 2026-05-07 19:19 | 51.20885 | 8.28856 | 24401 ft | 362 kts | 304° |
| 2026-05-07 19:20 | 51.22340 | 8.25596 | 24169 ft | 361 kts | 304° |
| 2026-05-07 19:20 | 51.23795 | 8.22340 | 23933 ft | 360 kts | 304° |
| 2026-05-07 19:20 | 51.25247 | 8.19087 | 23696 ft | 359 kts | 303° |
| 2026-05-07 19:20 | 51.26680 | 8.15870 | 23362 ft | 353 kts | 303° |
| 2026-05-07 19:21 | 51.28075 | 8.12738 | 23267 ft | 339 kts | 303° |
| 2026-05-07 19:21 | 51.29419 | 8.09725 | 23189 ft | 326 kts | 303° |
| 2026-05-07 19:21 | 51.30738 | 8.06755 | 23109 ft | 328 kts | 303° |
| 2026-05-07 19:21 | 51.32054 | 8.03778 | 23026 ft | 328 kts | 303° |
| 2026-05-07 19:22 | 51.33369 | 8.00803 | 22945 ft | 328 kts | 303° |
| 2026-05-07 19:22 | 51.33796 | 7.99839 | 22926 ft | 328 kts | 303° |
| 2026-05-07 19:25 | 51.34543 | 7.98038 | 22868 ft | 327 kts | 297° |
| 2026-05-07 19:25 | 51.35128 | 7.95837 | 22809 ft | 325 kts | 284° |
| 2026-05-07 19:25 | 51.35376 | 7.92280 | 22730 ft | 322 kts | 264° |
| 2026-05-07 19:25 | 51.34950 | 7.88769 | 22651 ft | 322 kts | 256° |
| 2026-05-07 19:26 | 51.34420 | 7.85298 | 22577 ft | 322 kts | 256° |
| 2026-05-07 19:26 | 51.33881 | 7.81821 | 22498 ft | 322 kts | 256° |
| 2026-05-07 19:26 | 51.33340 | 7.78339 | 22419 ft | 322 kts | 256° |
| 2026-05-07 19:26 | 51.32801 | 7.74864 | 22325 ft | 322 kts | 256° |
| 2026-05-07 19:27 | 51.32264 | 7.71412 | 22026 ft | 321 kts | 256° |
| 2026-05-07 19:27 | 51.31727 | 7.67969 | 21615 ft | 319 kts | 256° |
| 2026-05-07 19:27 | 51.31188 | 7.64542 | 21213 ft | 317 kts | 256° |
| 2026-05-07 19:27 | 51.30652 | 7.61123 | 20808 ft | 316 kts | 256° |
| 2026-05-07 19:28 | 51.30122 | 7.57727 | 20402 ft | 314 kts | 256° |
| 2026-05-07 19:28 | 51.29596 | 7.54343 | 20002 ft | 313 kts | 256° |
| 2026-05-07 19:28 | 51.29074 | 7.50984 | 19613 ft | 312 kts | 256° |
| 2026-05-07 19:28 | 51.28545 | 7.47611 | 19213 ft | 312 kts | 256° |
| 2026-05-07 19:29 | 51.28017 | 7.44262 | 18815 ft | 311 kts | 256° |
| 2026-05-07 19:29 | 51.27487 | 7.40909 | 18435 ft | 310 kts | 256° |
| 2026-05-07 19:29 | 51.26957 | 7.37573 | 18008 ft | 310 kts | 256° |
| 2026-05-07 19:29 | 51.26429 | 7.34250 | 17607 ft | 308 kts | 256° |
| 2026-05-07 19:30 | 51.25912 | 7.30994 | 17232 ft | 306 kts | 256° |
| 2026-05-07 19:30 | 51.25388 | 7.27709 | 16859 ft | 305 kts | 256° |
| 2026-05-07 19:30 | 51.24867 | 7.24447 | 16478 ft | 303 kts | 256° |
| 2026-05-07 19:30 | 51.24342 | 7.21150 | 16104 ft | 302 kts | 256° |
| 2026-05-07 19:31 | 51.23823 | 7.17898 | 15737 ft | 301 kts | 256° |
| 2026-05-07 19:31 | 51.23309 | 7.14702 | 15375 ft | 301 kts | 256° |
| 2026-05-07 19:31 | 51.22795 | 7.11520 | 15005 ft | 300 kts | 255° |
| 2026-05-07 19:31 | 51.22272 | 7.08286 | 14632 ft | 300 kts | 255° |
| 2026-05-07 19:32 | 51.21748 | 7.05054 | 14259 ft | 300 kts | 255° |
| 2026-05-07 19:32 | 51.21216 | 7.01762 | 13888 ft | 306 kts | 255° |
| 2026-05-07 19:32 | 51.20688 | 6.98504 | 13492 ft | 307 kts | 255° |
| 2026-05-07 19:32 | 51.20154 | 6.95207 | 13009 ft | 308 kts | 255° |
| 2026-05-07 19:33 | 51.19608 | 6.91858 | 12482 ft | 310 kts | 255° |
| 2026-05-07 19:33 | 51.19071 | 6.88572 | 12005 ft | 310 kts | 255° |
| 2026-05-07 19:33 | 51.18528 | 6.85266 | 11646 ft | 306 kts | 255° |
| 2026-05-07 19:33 | 51.17987 | 6.81981 | 11297 ft | 302 kts | 255° |
| 2026-05-07 19:34 | 51.17459 | 6.78787 | 10944 ft | 299 kts | 255° |
| 2026-05-07 19:34 | 51.16932 | 6.75603 | 10780 ft | 296 kts | 255° |
| 2026-05-07 19:34 | 51.16404 | 6.72420 | 10761 ft | 298 kts | 255° |
| 2026-05-07 19:34 | 51.15873 | 6.69229 | 10522 ft | 297 kts | 255° |
| 2026-05-07 19:35 | 51.15347 | 6.66069 | 10306 ft | 296 kts | 255° |
| 2026-05-07 19:35 | 51.14819 | 6.62904 | 10043 ft | 296 kts | 255° |
| 2026-05-07 19:35 | 51.14300 | 6.59716 | 9415 ft | 294 kts | 258° |
| 2026-05-07 19:35 | 51.14041 | 6.56515 | 8802 ft | 290 kts | 270° |
| 2026-05-07 19:36 | 51.14452 | 6.53423 | 8203 ft | 286 kts | 296° |
| 2026-05-07 19:36 | 51.15667 | 6.50976 | 7631 ft | 283 kts | 319° |
| 2026-05-07 19:36 | 51.17215 | 6.49033 | 7019 ft | 282 kts | 323° |
| 2026-05-07 19:36 | 51.18774 | 6.47177 | 6399 ft | 279 kts | 323° |
| 2026-05-07 19:37 | 51.20321 | 6.45333 | 5741 ft | 276 kts | 323° |
| 2026-05-07 19:37 | 51.21848 | 6.43495 | 5095 ft | 275 kts | 323° |
| 2026-05-07 19:37 | 51.23267 | 6.41470 | 4437 ft | 273 kts | 310° |
| 2026-05-07 19:37 | 51.24231 | 6.38903 | 3801 ft | 272 kts | 291° |
| 2026-05-07 19:38 | 51.24588 | 6.35961 | 3192 ft | 270 kts | 269° |
| 2026-05-07 19:38 | 51.24116 | 6.33080 | 3012 ft | 271 kts | 240° |
| 2026-05-07 19:38 | 51.22844 | 6.30913 | 3005 ft | 272 kts | 211° |
| 2026-05-07 19:38 | 51.21089 | 6.29788 | 3010 ft | 273 kts | 192° |
| 2026-05-07 19:39 | 51.19215 | 6.29447 | 3003 ft | 272 kts | 178° |
| 2026-05-07 19:39 | 51.17362 | 6.29974 | 3008 ft | 270 kts | 155° |
| 2026-05-07 19:39 | 51.15858 | 6.31623 | 3008 ft | 261 kts | 132° |
| 2026-05-07 19:39 | 51.14851 | 6.33834 | 3000 ft | 229 kts | 115° |
| 2026-05-07 19:40 | 51.14472 | 6.36092 | 3004 ft | 199 kts | 91° |
| 2026-05-07 19:40 | 51.14517 | 6.38160 | 2991 ft | 177 kts | 82° |
| 2026-05-07 19:40 | 51.14723 | 6.40035 | 2714 ft | 176 kts | 75° |
| 2026-05-07 19:40 | 51.15047 | 6.41978 | 2320 ft | 180 kts | 76° |
| 2026-05-07 19:41 | 51.15283 | 6.43884 | 2207 ft | 168 kts | 78° |
| 2026-05-07 19:41 | 51.15471 | 6.45707 | 1904 ft | 169 kts | 80° |
| 2026-05-07 19:41 | 51.15655 | 6.47527 | 1670 ft | 163 kts | 80° |
| 2026-05-07 19:41 | 51.15877 | 6.49453 | 1736 ft | 200 kts | 78° |
| 2026-05-07 19:42 | 51.16201 | 6.51770 | 1877 ft | 216 kts | 71° |
| 2026-05-07 19:42 | 51.16850 | 6.53807 | 1861 ft | 200 kts | 53° |
| 2026-05-07 19:42 | 51.17752 | 6.55373 | 1889 ft | 184 kts | 44° |
| 2026-05-07 19:42 | 51.18659 | 6.56714 | 1837 ft | 172 kts | 44° |
| 2026-05-07 19:43 | 51.19476 | 6.57999 | 1798 ft | 159 kts | 46° |
| 2026-05-07 19:43 | 51.20328 | 6.58970 | 1704 ft | 145 kts | 13° |
| 2026-05-07 19:43 | 51.21295 | 6.59464 | 1267 ft | 149 kts | 39° |
| 2026-05-07 19:43 | 51.21950 | 6.60690 | 961 ft | 147 kts | 57° |
| 2026-05-07 19:44 | 51.22426 | 6.62099 | 690 ft | 141 kts | 70° |
| 2026-05-07 19:44 | 51.22693 | 6.63764 | 836 ft | 169 kts | 77° |
| 2026-05-07 19:44 | 51.23208 | 6.65657 | 874 ft | 207 kts | 49° |